createdAt,value
2019-04-06T00:00:59.258Z,11.99
2019-04-06T00:01:59.256Z,12.01
2019-04-06T00:02:59.244Z,12.09
2019-04-06T00:03:59.237Z,12.04
2019-04-06T00:04:59.206Z,11.99
2019-04-06T00:05:59.201Z,11.99
2019-04-06T00:06:59.207Z,12.01
2019-04-06T00:07:59.190Z,11.97
2019-04-06T00:08:59.175Z,12.04
2019-04-06T00:09:59.201Z,12.01
2019-04-06T00:10:59.143Z,11.99
2019-04-06T00:11:59.175Z,12.02
2019-04-06T00:12:59.128Z,12.06
2019-04-06T00:13:59.117Z,12.01
2019-04-06T00:14:59.102Z,12.09
2019-04-06T00:15:59.100Z,11.99
2019-04-06T00:16:59.088Z,12.01
2019-04-06T00:17:59.088Z,12.06
2019-04-06T00:18:59.069Z,12.04
2019-04-06T00:19:59.062Z,11.89
2019-04-06T00:20:59.032Z,11.87
2019-04-06T00:21:59.020Z,11.96
2019-04-06T00:22:59.036Z,12.01
2019-04-06T00:23:59.041Z,11.96
2019-04-06T00:24:58.990Z,12.04
2019-04-06T00:25:58.996Z,12.02
2019-04-06T00:26:58.974Z,11.96
2019-04-06T00:27:58.983Z,11.99
2019-04-06T00:28:59.027Z,12.13
2019-04-06T00:29:58.941Z,12.06
2019-04-06T00:30:58.919Z,12.11
2019-04-06T00:31:58.919Z,12.08
2019-04-06T00:32:58.910Z,12.04
2019-04-06T00:33:58.932Z,12.09
2019-04-06T00:34:58.889Z,12.08
2019-04-06T00:35:58.878Z,12.04
2019-04-06T00:36:58.857Z,12.02
2019-04-06T00:37:58.852Z,12.12
2019-04-06T00:38:58.865Z,12.05
2019-04-06T00:39:58.822Z,12.13
2019-04-06T00:40:58.823Z,12.08
2019-04-06T00:41:58.818Z,12.06
2019-04-06T00:42:58.824Z,12.08
2019-04-06T00:43:58.797Z,12.15
2019-04-06T00:44:58.784Z,12.20
2019-04-06T00:45:58.763Z,12.13
2019-04-06T00:46:58.757Z,12.16
2019-04-06T00:47:58.752Z,12.08
2019-04-06T00:48:58.726Z,12.13
2019-04-06T00:49:58.752Z,12.09
2019-04-06T00:50:58.700Z,12.15
2019-04-06T00:51:58.695Z,12.08
2019-04-06T00:52:58.690Z,12.11
2019-04-06T00:53:58.675Z,12.08
2019-04-06T00:54:58.676Z,12.12
2019-04-06T00:55:58.692Z,12.11
2019-04-06T00:56:58.636Z,12.06
2019-04-06T00:57:58.621Z,12.15
2019-04-06T00:58:58.667Z,12.06
2019-04-06T00:59:58.618Z,12.06
2019-04-06T01:00:58.614Z,12.21
2019-04-06T01:01:58.612Z,12.13
2019-04-06T01:02:58.573Z,12.16
2019-04-06T01:03:58.554Z,12.19
2019-04-06T01:04:58.557Z,12.13
2019-04-06T01:05:58.548Z,12.12
2019-04-06T01:06:58.607Z,12.11
2019-04-06T01:07:58.543Z,12.13
2019-04-06T01:08:58.501Z,12.20
2019-04-06T01:09:58.499Z,12.13
2019-04-06T01:10:58.648Z,12.09
2019-04-06T01:11:58.479Z,12.04
2019-04-06T01:12:58.477Z,12.09
2019-04-06T01:13:58.468Z,12.11
2019-04-06T01:14:58.446Z,12.15
2019-04-06T01:15:58.778Z,12.13
2019-04-06T01:16:58.418Z,12.08
2019-04-06T01:17:58.403Z,12.16
2019-04-06T01:18:58.468Z,12.19
2019-04-06T01:19:58.397Z,12.13
2019-04-06T01:20:58.370Z,12.15
2019-04-06T01:21:58.867Z,12.11
2019-04-06T01:22:58.425Z,12.16
2019-04-06T01:23:58.337Z,12.13
2019-04-06T01:24:58.338Z,12.16
2019-04-06T01:26:06.934Z,12.16
2019-04-06T01:26:59.364Z,12.16
2019-04-06T01:27:58.301Z,12.13
2019-04-06T01:28:58.288Z,12.19
2019-04-06T01:29:58.277Z,12.16
2019-04-06T01:30:58.328Z,12.19
2019-04-06T01:31:58.276Z,12.19
2019-04-06T01:32:58.249Z,12.16
2019-04-06T01:33:59.166Z,12.16
2019-04-06T01:34:58.225Z,12.19
2019-04-06T01:35:58.208Z,12.05
2019-04-06T01:36:58.242Z,12.06
2019-04-06T01:37:58.213Z,12.02
2019-04-06T01:38:58.249Z,11.97
2019-04-06T01:39:58.177Z,11.93
2019-04-06T01:40:58.154Z,11.86
2019-04-06T01:41:58.143Z,11.82
2019-04-06T01:42:58.151Z,11.75
2019-04-06T01:43:58.146Z,11.71
2019-04-06T01:44:58.122Z,11.77
2019-04-06T01:45:58.119Z,11.75
2019-04-06T01:46:58.128Z,11.64
2019-04-06T01:47:58.108Z,11.71
2019-04-06T01:48:58.055Z,11.68
2019-04-06T01:49:58.054Z,11.71
2019-04-06T01:50:58.044Z,11.68
2019-04-06T01:51:58.038Z,11.59
2019-04-06T01:52:58.046Z,11.56
2019-04-06T01:53:58.019Z,11.56
2019-04-06T01:54:59.104Z,11.46
2019-04-06T01:55:57.993Z,11.43
2019-04-06T01:56:57.993Z,11.49
2019-04-06T01:57:57.971Z,11.43
2019-04-06T01:58:57.980Z,11.46
2019-04-06T01:59:57.944Z,11.43
2019-04-06T02:00:57.926Z,11.39
2019-04-06T02:01:58.029Z,11.19
2019-04-06T02:02:57.916Z,11.28
2019-04-06T02:03:57.922Z,11.24
2019-04-06T02:04:57.899Z,11.24
2019-04-06T02:05:57.951Z,11.20
2019-04-06T02:06:57.862Z,11.14
2019-04-06T02:07:57.851Z,11.11
2019-04-06T02:08:57.953Z,11.17
2019-04-06T02:09:57.839Z,11.13
2019-04-06T02:10:57.842Z,11.09
2019-04-06T02:11:57.818Z,11.11
2019-04-06T02:12:57.864Z,11.07
2019-04-06T02:13:57.776Z,11.10
2019-04-06T02:14:57.792Z,11.01
2019-04-06T02:15:57.759Z,10.96
2019-04-06T02:16:57.772Z,11.03
2019-04-06T02:17:57.747Z,11.03
2019-04-06T02:18:57.733Z,11.10
2019-04-06T02:19:57.757Z,11.03
2019-04-06T02:20:57.704Z,11.06
2019-04-06T02:21:57.694Z,11.01
2019-04-06T02:22:57.694Z,10.99
2019-04-06T02:23:57.711Z,10.92
2019-04-06T02:24:57.739Z,11.01
2019-04-06T02:25:57.650Z,10.99
2019-04-06T02:26:57.644Z,10.99
2019-04-06T02:27:57.630Z,10.99
2019-04-06T02:28:57.624Z,10.96
2019-04-06T02:29:57.642Z,10.91
2019-04-06T02:30:57.619Z,11.02
2019-04-06T02:31:57.602Z,10.86
2019-04-06T02:32:57.573Z,10.89
2019-04-06T02:33:57.559Z,10.89
2019-04-06T02:34:57.550Z,10.84
2019-04-06T02:35:57.641Z,10.86
2019-04-06T02:36:57.534Z,10.86
2019-04-06T02:37:57.525Z,10.78
2019-04-06T02:38:57.514Z,10.81
2019-04-06T02:39:57.490Z,10.76
2019-04-06T02:40:57.671Z,10.76
2019-04-06T02:41:57.615Z,10.80
2019-04-06T02:42:57.479Z,10.86
2019-04-06T02:43:57.465Z,10.91
2019-04-06T02:44:57.461Z,10.91
2019-04-06T02:45:57.450Z,10.94
2019-04-06T02:46:57.547Z,10.91
2019-04-06T02:47:57.407Z,10.86
2019-04-06T02:48:57.414Z,10.88
2019-04-06T02:49:57.403Z,10.84
2019-04-06T02:50:57.491Z,10.86
2019-04-06T02:51:57.375Z,10.86
2019-04-06T02:52:57.376Z,10.88
2019-04-06T02:53:57.347Z,10.89
2019-04-06T02:54:57.348Z,10.81
2019-04-06T02:55:57.335Z,10.86
2019-04-06T02:56:57.327Z,10.83
2019-04-06T02:57:57.341Z,10.71
2019-04-06T02:58:57.311Z,10.68
2019-04-06T02:59:57.279Z,10.71
2019-04-06T03:00:57.417Z,10.74
2019-04-06T03:01:57.452Z,10.76
2019-04-06T03:02:57.252Z,10.76
2019-04-06T03:03:57.242Z,10.66
2019-04-06T03:04:57.233Z,10.63
2019-04-06T03:05:57.232Z,10.62
2019-04-06T03:06:57.195Z,10.70
2019-04-06T03:07:57.193Z,10.68
2019-04-06T03:08:57.184Z,10.58
2019-04-06T03:09:57.191Z,10.60
2019-04-06T03:10:57.162Z,10.70
2019-04-06T03:11:57.278Z,10.66
2019-04-06T03:12:57.142Z,10.70
2019-04-06T03:13:57.154Z,10.66
2019-04-06T03:14:57.121Z,10.65
2019-04-06T03:15:57.132Z,10.71
2019-04-06T03:16:57.087Z,10.71
2019-04-06T03:17:57.083Z,10.60
2019-04-06T03:18:57.088Z,10.70
2019-04-06T03:19:57.062Z,10.66
2019-04-06T03:20:57.057Z,10.65
2019-04-06T03:21:57.030Z,10.60
2019-04-06T03:22:57.030Z,10.59
2019-04-06T03:23:57.054Z,10.46
2019-04-06T03:24:57.046Z,10.51
2019-04-06T03:25:56.996Z,10.47
2019-04-06T03:27:02.258Z,10.55
2019-04-06T03:27:57.977Z,10.53
2019-04-06T03:28:56.957Z,10.58
2019-04-06T03:29:59.028Z,10.47
2019-04-06T03:30:56.943Z,10.52
2019-04-06T03:31:57.086Z,10.47
2019-04-06T03:32:57.114Z,10.51
2019-04-06T03:33:56.916Z,10.39
2019-04-06T03:34:56.900Z,10.37
2019-04-06T03:35:56.908Z,10.43
2019-04-06T03:36:56.864Z,10.37
2019-04-06T03:37:56.884Z,10.46
2019-04-06T03:38:56.884Z,10.52
2019-04-06T03:39:56.835Z,10.53
2019-04-06T03:40:56.830Z,10.70
2019-04-06T03:41:56.847Z,10.52
2019-04-06T03:42:56.802Z,10.63
2019-04-06T03:43:56.806Z,10.56
2019-04-06T03:44:56.784Z,10.59
2019-04-06T03:45:57.048Z,10.51
2019-04-06T03:46:56.764Z,10.47
2019-04-06T03:47:56.958Z,10.51
2019-04-06T03:48:56.741Z,10.52
2019-04-06T03:49:56.987Z,10.47
2019-04-06T03:50:56.713Z,10.60
2019-04-06T03:51:56.689Z,10.62
2019-04-06T03:52:56.688Z,10.52
2019-04-06T03:53:56.747Z,10.60
2019-04-06T03:54:56.689Z,10.52
2019-04-06T03:55:56.649Z,10.53
2019-04-06T03:56:56.679Z,10.46
2019-04-06T03:57:56.619Z,10.58
2019-04-06T03:58:56.625Z,10.43
2019-04-06T03:59:56.804Z,10.46
2019-04-06T04:00:56.704Z,10.60
2019-04-06T04:01:56.611Z,10.52
2019-04-06T04:02:56.567Z,10.55
2019-04-06T04:03:56.653Z,10.55
2019-04-06T04:04:56.550Z,10.55
2019-04-06T04:05:56.552Z,10.55
2019-04-06T04:06:56.534Z,10.55
2019-04-06T04:07:56.555Z,10.58
2019-04-06T04:08:56.506Z,10.63
2019-04-06T04:09:56.487Z,10.56
2019-04-06T04:10:56.482Z,10.65
2019-04-06T04:11:56.462Z,10.53
2019-04-06T04:12:56.576Z,10.63
2019-04-06T04:13:56.467Z,10.62
2019-04-06T04:14:56.426Z,10.63
2019-04-06T04:15:57.439Z,10.63
2019-04-06T04:16:56.418Z,10.58
2019-04-06T04:17:56.407Z,10.55
2019-04-06T04:18:56.421Z,10.46
2019-04-06T04:19:56.375Z,10.65
2019-04-06T04:20:56.373Z,10.58
2019-04-06T04:21:56.371Z,10.66
2019-04-06T04:22:56.348Z,10.66
2019-04-06T04:23:56.373Z,10.70
2019-04-06T04:24:56.324Z,10.70
2019-04-06T04:25:56.582Z,10.68
2019-04-06T04:26:56.378Z,10.70
2019-04-06T04:27:56.300Z,10.74
2019-04-06T04:28:56.300Z,10.78
2019-04-06T04:29:56.275Z,10.86
2019-04-06T04:30:56.267Z,10.84
2019-04-06T04:31:56.252Z,10.89
2019-04-06T04:32:56.241Z,10.86
2019-04-06T04:33:56.220Z,10.95
2019-04-06T04:34:56.287Z,10.94
2019-04-06T04:35:56.196Z,10.96
2019-04-06T04:36:56.205Z,10.94
2019-04-06T04:37:56.310Z,10.91
2019-04-06T04:38:56.169Z,11.01
2019-04-06T04:39:56.169Z,10.89
2019-04-06T04:40:56.671Z,11.01
2019-04-06T04:41:56.135Z,10.99
2019-04-06T04:42:56.118Z,10.98
2019-04-06T04:43:56.330Z,11.01
2019-04-06T04:44:56.123Z,10.98
2019-04-06T04:45:56.133Z,10.98
2019-04-06T04:46:56.121Z,11.02
2019-04-06T04:47:56.068Z,11.07
2019-04-06T04:48:56.100Z,11.01
2019-04-06T04:49:56.112Z,11.06
2019-04-06T04:50:56.038Z,11.10
2019-04-06T04:51:56.043Z,11.11
2019-04-06T04:52:56.002Z,11.20
2019-04-06T04:53:56.002Z,11.24
2019-04-06T04:54:55.998Z,11.24
2019-04-06T04:55:55.975Z,11.28
2019-04-06T04:56:55.998Z,11.31
2019-04-06T04:57:55.993Z,11.35
2019-04-06T04:58:55.964Z,11.35
2019-04-06T04:59:55.942Z,11.31
2019-04-06T05:00:55.943Z,11.41
2019-04-06T05:01:55.950Z,11.41
2019-04-06T05:02:55.909Z,11.44
2019-04-06T05:03:55.932Z,11.62
2019-04-06T05:04:55.937Z,11.75
2019-04-06T05:05:55.892Z,11.82
2019-04-06T05:06:55.860Z,12.02
2019-04-06T05:07:55.959Z,12.06
2019-04-06T05:08:55.861Z,12.19
2019-04-06T05:09:55.837Z,12.12
2019-04-06T05:10:55.828Z,12.21
2019-04-06T05:11:55.885Z,12.23
2019-04-06T05:12:55.817Z,12.27
2019-04-06T05:13:55.787Z,12.31
2019-04-06T05:14:55.787Z,12.44
2019-04-06T05:15:55.768Z,12.49
2019-04-06T05:16:55.757Z,12.60
2019-04-06T05:17:55.930Z,12.70
2019-04-06T05:18:55.760Z,12.81
2019-04-06T05:19:55.717Z,12.89
2019-04-06T05:20:55.717Z,12.95
2019-04-06T05:21:55.696Z,13.11
2019-04-06T05:22:55.723Z,13.30
2019-04-06T05:23:55.673Z,13.55
2019-04-06T05:24:55.678Z,13.51
2019-04-06T05:25:55.653Z,13.70
2019-04-06T05:26:55.823Z,13.80
2019-04-06T05:27:55.626Z,13.89
2019-04-06T05:28:55.621Z,13.94
2019-04-06T05:29:55.645Z,14.09
2019-04-06T05:30:55.610Z,14.12
2019-04-06T05:31:55.594Z,14.31
2019-04-06T05:32:55.562Z,14.52
2019-04-06T05:33:55.556Z,14.71
2019-04-06T05:34:57.921Z,14.74
2019-04-06T05:35:55.555Z,14.81
2019-04-06T05:36:55.519Z,14.99
2019-04-06T05:37:55.512Z,15.11
2019-04-06T05:38:55.505Z,15.27
2019-04-06T05:39:55.499Z,15.33
2019-04-06T05:40:55.518Z,15.48
2019-04-06T05:41:55.484Z,15.52
2019-04-06T05:42:55.474Z,15.54
2019-04-06T05:43:55.457Z,15.70
2019-04-06T05:44:55.440Z,15.74
2019-04-06T05:45:55.425Z,15.85
2019-04-06T05:46:55.439Z,15.74
2019-04-06T05:47:55.406Z,15.74
2019-04-06T05:48:55.402Z,15.49
2019-04-06T05:49:55.393Z,15.61
2019-04-06T05:50:55.401Z,15.76
2019-04-06T05:51:55.359Z,15.84
2019-04-06T05:52:55.354Z,15.85
2019-04-06T05:53:55.350Z,15.94
2019-04-06T05:54:55.334Z,15.99
2019-04-06T05:55:55.318Z,15.97
2019-04-06T05:56:55.324Z,16.03
2019-04-06T05:58:03.388Z,15.86
2019-04-06T05:58:56.273Z,15.97
2019-04-06T05:59:55.300Z,16.11
2019-04-06T06:00:55.267Z,16.07
2019-04-06T06:01:55.275Z,16.07
2019-04-06T06:02:55.272Z,16.11
2019-04-06T06:03:55.258Z,15.89
2019-04-06T06:04:55.219Z,15.96
2019-04-06T06:05:55.217Z,16.09
2019-04-06T06:06:55.205Z,16.37
2019-04-06T06:07:55.184Z,16.68
2019-04-06T06:08:55.205Z,16.83
2019-04-06T06:09:55.174Z,16.86
2019-04-06T06:10:55.329Z,16.99
2019-04-06T06:11:55.911Z,17.07
2019-04-06T06:12:55.148Z,17.08
2019-04-06T06:13:55.118Z,16.92
2019-04-06T06:14:55.281Z,16.95
2019-04-06T06:15:55.242Z,16.85
2019-04-06T06:16:55.079Z,16.93
2019-04-06T06:17:55.073Z,16.98
2019-04-06T06:18:55.073Z,16.95
2019-04-06T06:19:55.095Z,17.20
2019-04-06T06:20:55.045Z,17.35
2019-04-06T06:21:55.024Z,17.41
2019-04-06T06:22:55.006Z,17.62
2019-04-06T06:23:55.015Z,17.47
2019-04-06T06:24:55.134Z,17.22
2019-04-06T06:25:54.989Z,16.93
2019-04-06T06:26:54.982Z,16.83
2019-04-06T06:27:54.961Z,16.77
2019-04-06T06:28:54.962Z,16.78
2019-04-06T06:29:54.962Z,16.74
2019-04-06T06:30:54.947Z,16.86
2019-04-06T06:31:54.934Z,16.86
2019-04-06T06:32:54.913Z,16.89
2019-04-06T06:33:54.900Z,17.10
2019-04-06T06:34:55.252Z,17.28
2019-04-06T06:35:54.886Z,17.28
2019-04-06T06:36:54.866Z,17.59
2019-04-06T06:37:54.854Z,17.79
2019-04-06T06:38:54.847Z,17.84
2019-04-06T06:39:54.832Z,17.94
2019-04-06T06:40:54.832Z,17.82
2019-04-06T06:41:54.818Z,18.00
2019-04-06T06:42:54.877Z,18.07
2019-04-06T06:43:54.801Z,18.17
2019-04-06T06:44:54.776Z,18.09
2019-04-06T06:45:54.799Z,18.07
2019-04-06T06:46:54.766Z,18.00
2019-04-06T06:47:54.739Z,18.03
2019-04-06T06:48:54.771Z,18.13
2019-04-06T06:49:54.717Z,18.34
2019-04-06T06:50:54.707Z,18.59
2019-04-06T06:51:54.933Z,18.76
2019-04-06T06:52:54.691Z,19.08
2019-04-06T06:53:54.697Z,19.15
2019-04-06T06:54:54.659Z,18.67
2019-04-06T06:55:54.654Z,18.28
2019-04-06T06:56:54.678Z,18.00
2019-04-06T06:57:54.644Z,18.42
2019-04-06T06:58:54.688Z,18.64
2019-04-06T06:59:54.609Z,18.77
2019-04-06T07:00:54.592Z,18.55
2019-04-06T07:01:54.642Z,18.62
2019-04-06T07:02:54.598Z,18.57
2019-04-06T07:03:54.569Z,18.19
2019-04-06T07:04:54.566Z,18.06
2019-04-06T07:05:54.583Z,18.34
2019-04-06T07:06:54.541Z,18.73
2019-04-06T07:07:54.516Z,19.01
2019-04-06T07:08:54.505Z,19.40
2019-04-06T07:10:04.698Z,19.65
2019-04-06T07:10:55.520Z,20.15
2019-04-06T07:11:54.471Z,20.53
2019-04-06T07:12:54.477Z,20.71
2019-04-06T07:13:54.453Z,21.01
2019-04-06T07:14:54.446Z,21.44
2019-04-06T07:15:54.445Z,21.64
2019-04-06T07:16:54.569Z,21.57
2019-04-06T07:17:54.437Z,21.53
2019-04-06T07:18:54.429Z,21.59
2019-04-06T07:19:54.389Z,21.63
2019-04-06T07:20:54.376Z,21.94
2019-04-06T07:21:54.375Z,22.10
2019-04-06T07:22:54.359Z,22.09
2019-04-06T07:23:54.421Z,22.14
2019-04-06T07:24:54.332Z,22.10
2019-04-06T07:25:58.564Z,22.29
2019-04-06T07:26:54.309Z,22.74
2019-04-06T07:27:54.528Z,22.93
2019-04-06T07:28:54.302Z,22.96
2019-04-06T07:29:54.327Z,22.87
2019-04-06T07:30:54.278Z,23.02
2019-04-06T07:31:54.257Z,23.20
2019-04-06T07:32:55.420Z,23.14
2019-04-06T07:33:54.405Z,23.24
2019-04-06T07:34:54.245Z,23.32
2019-04-06T07:35:54.226Z,23.04
2019-04-06T07:36:54.428Z,22.71
2019-04-06T07:37:54.343Z,22.32
2019-04-06T07:38:54.198Z,22.12
2019-04-06T07:39:54.328Z,21.67
2019-04-06T07:40:54.147Z,21.32
2019-04-06T07:41:54.165Z,21.16
2019-04-06T07:42:54.208Z,21.20
2019-04-06T07:43:54.122Z,21.27
2019-04-06T07:44:54.354Z,21.42
2019-04-06T07:45:54.135Z,21.81
2019-04-06T07:46:54.094Z,22.53
2019-04-06T07:47:54.100Z,23.12
2019-04-06T07:48:54.072Z,23.58
2019-04-06T07:49:54.069Z,23.61
2019-04-06T07:50:54.061Z,24.00
2019-04-06T07:51:54.056Z,24.24
2019-04-06T07:52:54.250Z,24.68
2019-04-06T07:53:54.019Z,24.56
2019-04-06T07:54:54.003Z,24.80
2019-04-06T07:55:54.006Z,24.85
2019-04-06T07:56:54.019Z,25.27
2019-04-06T07:57:54.013Z,25.39
2019-04-06T07:58:53.967Z,25.52
2019-04-06T07:59:53.955Z,25.44
2019-04-06T08:00:53.945Z,25.53
2019-04-06T08:01:54.004Z,25.94
2019-04-06T08:02:53.949Z,25.89
2019-04-06T08:03:53.914Z,26.24
2019-04-06T08:04:53.890Z,26.37
2019-04-06T08:05:53.906Z,26.57
2019-04-06T08:06:53.912Z,26.55
2019-04-06T08:07:54.053Z,26.74
2019-04-06T08:08:53.864Z,26.55
2019-04-06T08:09:53.838Z,26.77
2019-04-06T08:10:53.836Z,27.04
2019-04-06T08:11:53.819Z,27.24
2019-04-06T08:12:53.850Z,27.36
2019-04-06T08:13:53.896Z,27.46
2019-04-06T08:14:53.790Z,27.61
2019-04-06T08:15:53.789Z,27.70
2019-04-06T08:16:53.774Z,27.92
2019-04-06T08:17:53.798Z,28.25
2019-04-06T08:18:53.755Z,28.48
2019-04-06T08:19:53.733Z,28.80
2019-04-06T08:20:53.727Z,29.16
2019-04-06T08:21:53.727Z,28.88
2019-04-06T08:22:53.711Z,28.97
2019-04-06T08:23:53.733Z,29.26
2019-04-06T08:24:53.719Z,29.45
2019-04-06T08:25:53.688Z,29.63
2019-04-06T08:26:53.670Z,29.70
2019-04-06T08:27:53.864Z,29.47
2019-04-06T08:29:00.276Z,29.40
2019-04-06T08:29:54.654Z,29.00
2019-04-06T08:30:54.188Z,28.58
2019-04-06T08:31:53.601Z,28.80
2019-04-06T08:32:53.609Z,28.77
2019-04-06T08:33:53.884Z,29.13
2019-04-06T08:34:53.569Z,29.44
2019-04-06T08:35:53.573Z,29.49
2019-04-06T08:36:53.571Z,29.59
2019-04-06T08:37:53.547Z,29.41
2019-04-06T08:38:53.748Z,29.26
2019-04-06T08:39:53.641Z,29.55
2019-04-06T08:40:53.500Z,29.97
2019-04-06T08:41:53.493Z,30.19
2019-04-06T08:42:53.488Z,30.65
2019-04-06T08:43:53.482Z,30.64
2019-04-06T08:44:53.494Z,30.67
2019-04-06T08:45:53.486Z,30.71
2019-04-06T08:46:53.454Z,30.91
2019-04-06T08:47:53.440Z,31.18
2019-04-06T08:48:53.507Z,31.12
2019-04-06T08:49:53.431Z,30.93
2019-04-06T08:50:53.432Z,30.86
2019-04-06T08:51:53.393Z,31.24
2019-04-06T08:52:53.378Z,31.76
2019-04-06T08:53:53.368Z,32.33
2019-04-06T08:54:53.354Z,32.51
2019-04-06T08:55:53.378Z,32.47
2019-04-06T08:56:53.349Z,32.69
2019-04-06T08:57:53.399Z,32.40
2019-04-06T08:58:53.352Z,32.24
2019-04-06T08:59:53.427Z,32.36
2019-04-06T09:00:53.310Z,32.40
2019-04-06T09:01:53.291Z,32.48
2019-04-06T09:02:53.279Z,32.69
2019-04-06T09:03:53.269Z,32.67
2019-04-06T09:04:53.284Z,32.88
2019-04-06T09:05:53.443Z,32.62
2019-04-06T09:06:53.244Z,32.52
2019-04-06T09:07:53.450Z,32.86
2019-04-06T09:08:53.220Z,33.10
2019-04-06T09:09:53.220Z,33.03
2019-04-06T09:10:53.235Z,32.36
2019-04-06T09:11:53.182Z,32.15
2019-04-06T09:12:53.397Z,31.64
2019-04-06T09:13:53.159Z,31.64
2019-04-06T09:14:53.550Z,32.06
2019-04-06T09:15:53.183Z,32.43
2019-04-06T09:16:53.251Z,32.66
2019-04-06T09:17:53.111Z,33.14
2019-04-06T09:18:53.108Z,33.45
2019-04-06T09:19:53.113Z,33.41
2019-04-06T09:20:53.147Z,33.30
2019-04-06T09:21:53.091Z,33.06
2019-04-06T09:22:53.078Z,33.10
2019-04-06T09:23:53.065Z,33.10
2019-04-06T09:24:53.056Z,33.31
2019-04-06T09:25:53.069Z,33.08
2019-04-06T09:26:53.052Z,32.81
2019-04-06T09:27:53.025Z,32.44
2019-04-06T09:28:53.015Z,32.59
2019-04-06T09:29:53.076Z,32.76
2019-04-06T09:30:53.030Z,33.15
2019-04-06T09:31:52.979Z,32.70
2019-04-06T09:32:52.977Z,32.03
2019-04-06T09:33:53.214Z,32.05
2019-04-06T09:34:52.972Z,32.18
2019-04-06T09:35:52.938Z,32.66
2019-04-06T09:36:52.954Z,32.06
2019-04-06T09:37:52.923Z,31.84
2019-04-06T09:38:53.055Z,31.79
2019-04-06T09:39:52.912Z,32.27
2019-04-06T09:40:53.007Z,32.61
2019-04-06T09:41:52.896Z,32.43
2019-04-06T09:42:52.897Z,32.64
2019-04-06T09:43:52.870Z,32.62
2019-04-06T09:44:52.870Z,32.13
2019-04-06T09:45:52.851Z,31.65
2019-04-06T09:46:52.824Z,31.85
2019-04-06T09:47:52.838Z,32.13
2019-04-06T09:48:52.841Z,32.05
2019-04-06T09:49:52.790Z,32.44
2019-04-06T09:50:52.862Z,32.58
2019-04-06T09:51:52.783Z,32.79
2019-04-06T09:52:52.800Z,32.99
2019-04-06T09:54:04.561Z,33.10
2019-04-06T09:54:53.956Z,33.48
2019-04-06T09:55:52.789Z,33.23
2019-04-06T09:56:52.726Z,32.30
2019-04-06T09:57:52.713Z,31.84
2019-04-06T09:58:52.732Z,32.37
2019-04-06T09:59:52.708Z,32.74
2019-04-06T10:00:52.701Z,33.04
2019-04-06T10:01:52.688Z,33.37
2019-04-06T10:02:52.670Z,33.29
2019-04-06T10:03:52.677Z,33.17
2019-04-06T10:04:52.652Z,33.07
2019-04-06T10:05:52.844Z,32.73
2019-04-06T10:06:52.637Z,31.95
2019-04-06T10:07:52.617Z,31.64
2019-04-06T10:08:52.610Z,31.38
2019-04-06T10:09:52.838Z,30.99
2019-04-06T10:10:52.587Z,31.46
2019-04-06T10:11:52.592Z,31.64
2019-04-06T10:12:52.577Z,31.82
2019-04-06T10:13:52.589Z,32.27
2019-04-06T10:14:52.584Z,32.49
2019-04-06T10:15:52.536Z,32.13
2019-04-06T10:16:52.523Z,32.05
2019-04-06T10:17:52.640Z,32.24
2019-04-06T10:18:52.515Z,32.48
2019-04-06T10:19:54.432Z,32.67
2019-04-06T10:20:52.771Z,33.06
2019-04-06T10:21:52.484Z,33.19
2019-04-06T10:22:52.472Z,33.30
2019-04-06T10:23:52.463Z,33.55
2019-04-06T10:24:52.479Z,33.27
2019-04-06T10:25:52.447Z,33.01
2019-04-06T10:26:52.672Z,33.07
2019-04-06T10:27:52.570Z,32.76
2019-04-06T10:28:52.416Z,32.93
2019-04-06T10:29:52.433Z,33.26
2019-04-06T10:30:53.680Z,32.84
2019-04-06T10:31:52.388Z,32.27
2019-04-06T10:32:52.374Z,31.55
2019-04-06T10:33:52.369Z,31.27
2019-04-06T10:34:52.399Z,31.05
2019-04-06T10:35:52.347Z,30.57
2019-04-06T10:36:52.324Z,30.65
2019-04-06T10:37:52.331Z,30.65
2019-04-06T10:38:52.342Z,30.90
2019-04-06T10:39:52.411Z,31.28
2019-04-06T10:40:52.322Z,31.33
2019-04-06T10:41:52.284Z,31.45
2019-04-06T10:42:52.282Z,31.53
2019-04-06T10:43:52.505Z,32.06
2019-04-06T10:44:52.258Z,31.95
2019-04-06T10:45:52.276Z,31.18
2019-04-06T10:46:52.240Z,30.53
2019-04-06T10:47:52.242Z,30.86
2019-04-06T10:48:52.226Z,31.26
2019-04-06T10:49:52.492Z,31.48
2019-04-06T10:50:52.228Z,31.61
2019-04-06T10:51:52.200Z,31.93
2019-04-06T10:52:52.180Z,32.27
2019-04-06T10:53:52.170Z,32.74
2019-04-06T10:54:52.353Z,33.23
2019-04-06T10:55:52.159Z,32.86
2019-04-06T10:56:52.240Z,32.79
2019-04-06T10:57:52.139Z,31.70
2019-04-06T10:58:52.117Z,30.49
2019-04-06T11:00:00.959Z,29.31
2019-04-06T11:00:53.693Z,28.47
2019-04-06T11:01:52.108Z,28.14
2019-04-06T11:02:52.102Z,28.09
2019-04-06T11:03:52.069Z,28.70
2019-04-06T11:04:52.062Z,28.96
2019-04-06T11:05:52.159Z,29.04
2019-04-06T11:06:52.137Z,29.20
2019-04-06T11:07:52.027Z,29.45
2019-04-06T11:08:52.009Z,29.93
2019-04-06T11:09:52.008Z,30.37
2019-04-06T11:10:52.035Z,30.83
2019-04-06T11:11:52.011Z,31.40
2019-04-06T11:12:51.970Z,31.49
2019-04-06T11:13:51.963Z,31.06
2019-04-06T11:14:51.955Z,30.64
2019-04-06T11:15:51.958Z,29.68
2019-04-06T11:16:51.944Z,29.55
2019-04-06T11:17:51.953Z,29.41
2019-04-06T11:18:51.949Z,29.43
2019-04-06T11:19:51.898Z,29.35
2019-04-06T11:20:51.899Z,29.19
2019-04-06T11:21:51.880Z,28.50
2019-04-06T11:22:51.900Z,28.62
2019-04-06T11:23:51.872Z,28.40
2019-04-06T11:24:51.854Z,28.23
2019-04-06T11:25:51.842Z,28.35
2019-04-06T11:26:52.142Z,28.48
2019-04-06T11:27:51.957Z,29.25
2019-04-06T11:28:51.863Z,29.65
2019-04-06T11:29:51.811Z,29.62
2019-04-06T11:30:51.799Z,29.53
2019-04-06T11:31:51.779Z,29.45
2019-04-06T11:32:51.789Z,29.40
2019-04-06T11:33:51.775Z,29.43
2019-04-06T11:34:52.048Z,29.34
2019-04-06T11:35:51.755Z,29.16
2019-04-06T11:36:51.738Z,29.23
2019-04-06T11:37:51.764Z,29.06
2019-04-06T11:38:51.726Z,29.08
2019-04-06T11:39:51.764Z,29.40
2019-04-06T11:40:51.973Z,29.38
2019-04-06T11:41:54.420Z,29.06
2019-04-06T11:42:51.675Z,29.08
2019-04-06T11:43:51.689Z,28.80
2019-04-06T11:44:51.746Z,28.16
2019-04-06T11:45:51.930Z,28.19
2019-04-06T11:46:51.628Z,28.53
2019-04-06T11:47:51.627Z,29.01
2019-04-06T11:48:51.861Z,29.13
2019-04-06T11:49:51.621Z,29.63
2019-04-06T11:50:51.597Z,30.23
2019-04-06T11:51:51.684Z,30.57
2019-04-06T11:52:51.577Z,30.69
2019-04-06T11:53:51.558Z,30.74
2019-04-06T11:54:51.569Z,30.09
2019-04-06T11:55:51.548Z,29.60
2019-04-06T11:56:51.538Z,29.60
2019-04-06T11:57:51.521Z,30.02
2019-04-06T11:58:51.534Z,30.61
2019-04-06T11:59:51.550Z,30.65
2019-04-06T12:00:51.554Z,30.21
2019-04-06T12:01:51.520Z,30.37
2019-04-06T12:02:51.501Z,30.59
2019-04-06T12:03:51.486Z,30.69
2019-04-06T12:04:51.502Z,31.04
2019-04-06T12:05:51.495Z,31.13
2019-04-06T12:06:51.459Z,30.72
2019-04-06T12:07:51.429Z,30.24
2019-04-06T12:08:51.510Z,30.57
2019-04-06T12:09:51.465Z,30.76
2019-04-06T12:10:51.395Z,30.96
2019-04-06T12:11:51.382Z,30.59
2019-04-06T12:12:51.371Z,30.62
2019-04-06T12:13:51.373Z,30.75
2019-04-06T12:14:51.380Z,30.86
2019-04-06T12:15:51.356Z,30.38
2019-04-06T12:16:51.327Z,29.86
2019-04-06T12:17:51.323Z,29.78
2019-04-06T12:18:51.614Z,29.86
2019-04-06T12:19:51.351Z,29.79
2019-04-06T12:20:51.300Z,29.52
2019-04-06T12:21:51.287Z,29.10
2019-04-06T12:22:51.343Z,28.26
2019-04-06T12:23:51.627Z,27.69
2019-04-06T12:24:51.244Z,27.32
2019-04-06T12:25:51.525Z,26.73
2019-04-06T12:26:51.218Z,26.22
2019-04-06T12:27:51.223Z,25.64
2019-04-06T12:28:51.215Z,25.67
2019-04-06T12:29:51.186Z,25.57
2019-04-06T12:30:51.528Z,25.01
2019-04-06T12:31:51.252Z,24.61
2019-04-06T12:32:51.165Z,24.26
2019-04-06T12:33:51.157Z,23.97
2019-04-06T12:34:51.150Z,23.87
2019-04-06T12:35:51.126Z,23.70
2019-04-06T12:36:51.453Z,23.53
2019-04-06T12:37:51.422Z,23.46
2019-04-06T12:38:51.100Z,23.55
2019-04-06T12:39:53.746Z,23.35
2019-04-06T12:40:51.085Z,23.31
2019-04-06T12:41:51.102Z,22.92
2019-04-06T12:42:51.056Z,22.62
2019-04-06T12:43:51.044Z,22.60
2019-04-06T12:44:51.026Z,22.67
2019-04-06T12:45:51.027Z,22.60
2019-04-06T12:46:51.028Z,22.54
2019-04-06T12:47:51.017Z,22.32
2019-04-06T12:48:52.521Z,22.37
2019-04-06T12:49:50.979Z,22.37
2019-04-06T12:50:50.970Z,22.31
2019-04-06T12:51:50.997Z,22.28
2019-04-06T12:52:50.965Z,22.29